createdAt,value
2022-09-02T00:00:31.606Z,1019.09
2022-09-02T00:01:32.207Z,1019.07
2022-09-02T00:02:32.892Z,1019.05
2022-09-02T00:03:33.582Z,1019.13
2022-09-02T00:04:34.184Z,1019.08
2022-09-02T00:05:34.777Z,1019.08
2022-09-02T00:06:35.369Z,1019.12
2022-09-02T00:07:35.962Z,1019.05
2022-09-02T00:08:36.570Z,1019.08
2022-09-02T00:09:37.170Z,1019.06
2022-09-02T00:10:37.770Z,1019.07
2022-09-02T00:11:38.356Z,1019.01
2022-09-02T00:12:38.947Z,1019.09
2022-09-02T00:13:39.539Z,1019.01
2022-09-02T00:14:40.133Z,1018.96
2022-09-02T00:15:40.725Z,1019.01
2022-09-02T00:16:41.373Z,1018.97
2022-09-02T00:17:41.960Z,1018.97
2022-09-02T00:18:44.879Z,1018.90
2022-09-02T00:19:44.201Z,1018.97
2022-09-02T00:20:44.805Z,1018.94
2022-09-02T00:21:45.403Z,1018.96
2022-09-02T00:22:46.002Z,1018.95
2022-09-02T00:23:46.602Z,1018.95
2022-09-02T00:24:47.203Z,1018.96
2022-09-02T00:25:47.790Z,1018.99
2022-09-02T00:26:48.432Z,1018.95
2022-09-02T00:27:49.024Z,1018.95
2022-09-02T00:28:55.908Z,1018.94
2022-09-02T00:29:51.224Z,1018.99
2022-09-02T00:30:51.824Z,1018.99
2022-09-02T00:31:52.530Z,1018.92
2022-09-02T00:32:53.161Z,1018.87
2022-09-02T00:33:53.763Z,1018.87
2022-09-02T00:34:54.361Z,1018.87
2022-09-02T00:35:55.008Z,1018.90
2022-09-02T00:36:55.594Z,1018.92
2022-09-02T00:37:56.188Z,1018.94
2022-09-02T00:38:56.781Z,1018.92
2022-09-02T00:39:57.523Z,1018.91
2022-09-02T00:40:58.116Z,1018.93
2022-09-02T00:41:58.856Z,1018.88
2022-09-02T00:42:59.447Z,1018.99
2022-09-02T00:44:00.089Z,1018.87
2022-09-02T00:45:00.684Z,1018.89
2022-09-02T00:46:01.338Z,1018.97
2022-09-02T00:47:02.023Z,1018.96
2022-09-02T00:48:02.611Z,1018.84
2022-09-02T00:49:03.219Z,1018.95
2022-09-02T00:50:03.804Z,1018.88
2022-09-02T00:51:04.462Z,1019.01
2022-09-02T00:52:06.053Z,1018.94
2022-09-02T00:53:06.689Z,1018.93
2022-09-02T00:54:07.288Z,1018.94
2022-09-02T00:55:07.892Z,1018.95
2022-09-02T00:56:08.489Z,1018.91
2022-09-02T00:57:09.090Z,1019.02
2022-09-02T00:58:09.794Z,1018.91
2022-09-02T00:59:10.365Z,1018.90
2022-09-02T01:00:10.962Z,1018.96
2022-09-02T01:01:11.725Z,1018.94
2022-09-02T01:02:12.500Z,1018.88
2022-09-02T01:03:13.130Z,1018.96
2022-09-02T01:04:13.728Z,1018.98
2022-09-02T01:05:14.314Z,1018.98
2022-09-02T01:06:14.905Z,1018.94
2022-09-02T01:07:15.513Z,1018.88
2022-09-02T01:08:16.097Z,1018.88
2022-09-02T01:09:16.693Z,1018.89
2022-09-02T01:10:17.283Z,1018.91
2022-09-02T01:11:17.875Z,1018.88
2022-09-02T01:12:18.466Z,1018.88
2022-09-02T01:13:19.118Z,1018.88
2022-09-02T01:14:19.706Z,1018.84
2022-09-02T01:15:20.299Z,1018.81
2022-09-02T01:16:20.921Z,1018.84
2022-09-02T01:17:21.731Z,1018.89
2022-09-02T01:18:22.332Z,1018.95
2022-09-02T01:19:22.930Z,1018.90
2022-09-02T01:20:24.501Z,1018.90
2022-09-02T01:21:25.103Z,1018.80
2022-09-02T01:22:25.696Z,1018.87
2022-09-02T01:23:26.288Z,1018.97
2022-09-02T01:24:27.874Z,1018.83
2022-09-02T01:25:28.481Z,1018.85
2022-09-02T01:26:29.078Z,1018.88
2022-09-02T01:27:29.679Z,1018.91
2022-09-02T01:28:30.280Z,1018.85
2022-09-02T01:29:30.881Z,1018.88
2022-09-02T01:30:31.479Z,1018.91
2022-09-02T01:31:32.134Z,1018.93
2022-09-02T01:32:32.735Z,1018.87
2022-09-02T01:33:33.334Z,1018.89
2022-09-02T01:34:34.913Z,1018.83
2022-09-02T01:35:35.506Z,1018.83
2022-09-02T01:36:36.099Z,1018.85
2022-09-02T01:37:36.754Z,1018.87
2022-09-02T01:38:37.508Z,1018.85
2022-09-02T01:39:38.101Z,1018.82
2022-09-02T01:40:38.927Z,1018.87
2022-09-02T01:41:39.526Z,1018.81
2022-09-02T01:42:40.125Z,1018.84
2022-09-02T01:43:40.722Z,1018.77
2022-09-02T01:44:41.913Z,1018.84
2022-09-02T01:45:42.513Z,1018.88
2022-09-02T01:46:43.204Z,1018.84
2022-09-02T01:47:43.802Z,1018.82
2022-09-02T01:48:44.401Z,1018.82
2022-09-02T01:49:44.987Z,1018.85
2022-09-02T01:50:45.630Z,1018.86
2022-09-02T01:51:47.280Z,1018.81
2022-09-02T01:52:47.865Z,1018.75
2022-09-02T01:53:48.474Z,1018.79
2022-09-02T01:54:49.073Z,1018.82
2022-09-02T01:55:49.676Z,1018.80
2022-09-02T01:56:50.275Z,1018.81
2022-09-02T01:57:50.860Z,1018.81
2022-09-02T01:58:51.508Z,1018.84
2022-09-02T01:59:53.095Z,1018.81
2022-09-02T02:00:53.713Z,1018.74
2022-09-02T02:01:54.388Z,1018.83
2022-09-02T02:02:54.969Z,1018.86
2022-09-02T02:03:55.562Z,1018.77
2022-09-02T02:04:56.882Z,1018.71
2022-09-02T02:05:57.488Z,1018.74
2022-09-02T02:06:58.072Z,1018.74
2022-09-02T02:07:58.679Z,1018.79
2022-09-02T02:08:59.279Z,1018.76
2022-09-02T02:09:59.865Z,1018.79
2022-09-02T02:11:00.457Z,1018.80
2022-09-02T02:12:01.051Z,1018.79
2022-09-02T02:13:01.647Z,1018.82
2022-09-02T02:14:02.250Z,1018.79
2022-09-02T02:15:02.848Z,1018.73
2022-09-02T02:16:03.510Z,1018.79
2022-09-02T02:17:04.435Z,1018.78
2022-09-02T02:18:05.035Z,1018.86
2022-09-02T02:19:05.636Z,1018.74
2022-09-02T02:20:06.301Z,1018.79
2022-09-02T02:21:06.899Z,1018.80
2022-09-02T02:22:07.499Z,1018.84
2022-09-02T02:23:08.100Z,1018.88
2022-09-02T02:24:08.705Z,1018.80
2022-09-02T02:25:09.305Z,1018.83
2022-09-02T02:26:09.900Z,1018.85
2022-09-02T02:27:10.489Z,1018.84
2022-09-02T02:28:11.082Z,1018.86
2022-09-02T02:29:11.672Z,1018.82
2022-09-02T02:30:12.267Z,1018.88
2022-09-02T02:31:12.888Z,1018.85
2022-09-02T02:32:13.460Z,1018.81
2022-09-02T02:33:14.091Z,1018.85
2022-09-02T02:34:14.682Z,1018.82
2022-09-02T02:35:15.274Z,1018.76
2022-09-02T02:36:15.866Z,1018.86
2022-09-02T02:37:16.461Z,1018.84
2022-09-02T02:38:17.053Z,1018.81
2022-09-02T02:39:17.647Z,1018.79
2022-09-02T02:40:18.289Z,1018.81
2022-09-02T02:41:19.079Z,1018.87
2022-09-02T02:42:19.891Z,1018.85
2022-09-02T02:43:20.525Z,1018.85
2022-09-02T02:44:21.120Z,1018.87
2022-09-02T02:45:21.705Z,1018.81
2022-09-02T02:46:22.412Z,1018.77
2022-09-02T02:47:23.039Z,1018.78
2022-09-02T02:48:23.634Z,1018.81
2022-09-02T02:49:24.233Z,1018.79
2022-09-02T02:50:24.823Z,1018.81
2022-09-02T02:51:25.413Z,1018.83
2022-09-02T02:52:26.020Z,1018.81
2022-09-02T02:53:26.657Z,1018.82
2022-09-02T02:54:34.884Z,1018.80
2022-09-02T02:55:28.855Z,1018.76
2022-09-02T02:56:29.606Z,1018.76
2022-09-02T02:57:30.205Z,1018.78
2022-09-02T02:58:30.804Z,1018.76
2022-09-02T02:59:31.404Z,1018.77
2022-09-02T03:00:32.057Z,1018.72
2022-09-02T03:01:32.776Z,1018.71
2022-09-02T03:02:33.600Z,1018.64
2022-09-02T03:03:34.214Z,1018.72
2022-09-02T03:04:34.807Z,1018.66
2022-09-02T03:05:35.402Z,1018.72
2022-09-02T03:06:36.011Z,1018.72
2022-09-02T03:07:36.595Z,1018.72
2022-09-02T03:08:37.670Z,1018.66
2022-09-02T03:09:38.270Z,1018.71
2022-09-02T03:10:38.857Z,1018.72
2022-09-02T03:11:39.449Z,1018.68
2022-09-02T03:12:40.041Z,1018.70
2022-09-02T03:13:40.635Z,1018.76
2022-09-02T03:14:41.229Z,1018.65
2022-09-02T03:15:41.947Z,1018.71
2022-09-02T03:16:42.516Z,1018.58
2022-09-02T03:17:43.108Z,1018.60
2022-09-02T03:18:43.716Z,1018.72
2022-09-02T03:19:44.300Z,1018.66
2022-09-02T03:20:44.895Z,1018.63
2022-09-02T03:21:45.488Z,1018.61
2022-09-02T03:22:46.094Z,1018.66
2022-09-02T03:23:47.684Z,1018.69
2022-09-02T03:24:48.284Z,1018.69
2022-09-02T03:25:48.883Z,1018.63
2022-09-02T03:26:49.482Z,1018.77
2022-09-02T03:27:50.081Z,1018.69
2022-09-02T03:28:50.683Z,1018.69
2022-09-02T03:29:51.283Z,1018.69
2022-09-02T03:30:51.903Z,1018.66
2022-09-02T03:31:52.540Z,1018.72
2022-09-02T03:32:54.134Z,1018.66
2022-09-02T03:33:54.733Z,1018.75
2022-09-02T03:34:55.334Z,1018.80
2022-09-02T03:35:55.934Z,1018.78
2022-09-02T03:36:56.534Z,1018.78
2022-09-02T03:37:57.412Z,1018.72
2022-09-02T03:38:58.081Z,1018.78
2022-09-02T03:39:58.673Z,1018.68
2022-09-02T03:40:59.266Z,1018.71
2022-09-02T03:41:59.861Z,1018.68
2022-09-02T03:43:01.445Z,1018.68
2022-09-02T03:44:02.038Z,1018.70
2022-09-02T03:45:02.629Z,1018.67
2022-09-02T03:46:03.317Z,1018.64
2022-09-02T03:47:03.878Z,1018.70
2022-09-02T03:48:04.470Z,1018.69
2022-09-02T03:49:05.065Z,1018.67
2022-09-02T03:50:05.804Z,1018.64
2022-09-02T03:51:06.411Z,1018.67
2022-09-02T03:52:07.010Z,1018.63
2022-09-02T03:53:07.771Z,1018.55
2022-09-02T03:54:08.359Z,1018.57
2022-09-02T03:55:08.957Z,1018.66
2022-09-02T03:56:09.571Z,1018.66
2022-09-02T03:57:10.331Z,1018.59
2022-09-02T03:58:11.115Z,1018.58
2022-09-02T03:59:11.713Z,1018.62
2022-09-02T04:00:12.325Z,1018.59
2022-09-02T04:01:13.970Z,1018.60
2022-09-02T04:02:14.839Z,1018.58
2022-09-02T04:03:15.611Z,1018.60
2022-09-02T04:04:19.692Z,1018.62
2022-09-02T04:05:17.866Z,1018.63
2022-09-02T04:06:18.455Z,1018.59
2022-09-02T04:07:19.046Z,1018.59
2022-09-02T04:08:19.644Z,1018.61
2022-09-02T04:09:20.232Z,1018.61
2022-09-02T04:10:20.828Z,1018.56
2022-09-02T04:11:21.419Z,1018.55
2022-09-02T04:12:22.013Z,1018.58
2022-09-02T04:13:23.708Z,1018.55
2022-09-02T04:14:24.301Z,1018.57
2022-09-02T04:15:24.894Z,1018.59
2022-09-02T04:16:25.533Z,1018.47
2022-09-02T04:17:26.118Z,1018.52
2022-09-02T04:18:26.711Z,1018.56
2022-09-02T04:19:28.313Z,1018.58
2022-09-02T04:20:28.962Z,1018.54
2022-09-02T04:21:29.568Z,1018.55
2022-09-02T04:22:30.165Z,1018.55
2022-09-02T04:23:30.765Z,1018.60
2022-09-02T04:24:31.365Z,1018.59
2022-09-02T04:25:31.964Z,1018.57
2022-09-02T04:26:32.564Z,1018.55
2022-09-02T04:27:33.315Z,1018.55
2022-09-02T04:28:33.915Z,1018.55
2022-09-02T04:29:34.512Z,1018.56
2022-09-02T04:30:35.115Z,1018.59
2022-09-02T04:31:35.798Z,1018.60
2022-09-02T04:32:40.466Z,1018.50
2022-09-02T04:33:37.983Z,1018.62
2022-09-02T04:34:38.580Z,1018.52
2022-09-02T04:35:39.243Z,1018.56
2022-09-02T04:36:39.844Z,1018.61
2022-09-02T04:37:40.490Z,1018.50
2022-09-02T04:38:41.090Z,1018.43
2022-09-02T04:39:41.675Z,1018.45
2022-09-02T04:40:42.304Z,1018.50
2022-09-02T04:41:42.900Z,1018.48
2022-09-02T04:42:43.490Z,1018.39
2022-09-02T04:43:44.083Z,1018.46
2022-09-02T04:44:44.676Z,1018.43
2022-09-02T04:45:45.350Z,1018.44
2022-09-02T04:46:46.033Z,1018.48
2022-09-02T04:47:46.632Z,1018.49
2022-09-02T04:48:47.945Z,1018.49
2022-09-02T04:49:48.543Z,1018.49
2022-09-02T04:50:49.130Z,1018.50
2022-09-02T04:51:49.723Z,1018.48
2022-09-02T04:52:50.315Z,1018.51
2022-09-02T04:53:50.908Z,1018.50
2022-09-02T04:54:51.500Z,1018.54
2022-09-02T04:55:57.354Z,1018.46
2022-09-02T04:56:53.829Z,1018.54
2022-09-02T04:57:54.436Z,1018.46
2022-09-02T04:58:55.026Z,1018.45
2022-09-02T04:59:55.626Z,1018.45
2022-09-02T05:00:56.242Z,1018.45
2022-09-02T05:01:56.893Z,1018.34
2022-09-02T05:02:57.564Z,1018.35
2022-09-02T05:03:58.171Z,1018.36
2022-09-02T05:04:58.925Z,1018.33
2022-09-02T05:05:59.520Z,1018.30
2022-09-02T05:07:00.122Z,1018.38
2022-09-02T05:08:00.722Z,1018.35
2022-09-02T05:09:01.323Z,1018.30
2022-09-02T05:10:01.971Z,1018.33
2022-09-02T05:11:02.570Z,1018.22
2022-09-02T05:12:03.167Z,1018.35
2022-09-02T05:13:03.753Z,1018.40
2022-09-02T05:14:04.367Z,1018.33
2022-09-02T05:15:04.958Z,1018.33
2022-09-02T05:16:05.605Z,1018.35
2022-09-02T05:17:07.797Z,1018.24
2022-09-02T05:18:07.807Z,1018.35
2022-09-02T05:19:08.382Z,1018.29
2022-09-02T05:20:08.976Z,1018.32
2022-09-02T05:21:09.566Z,1018.35
2022-09-02T05:22:10.158Z,1018.38
2022-09-02T05:23:10.751Z,1018.38
2022-09-02T05:24:11.341Z,1018.32
2022-09-02T05:25:11.932Z,1018.43
2022-09-02T05:26:12.525Z,1018.43
2022-09-02T05:27:13.117Z,1018.35
2022-09-02T05:28:13.722Z,1018.40
2022-09-02T05:29:14.325Z,1018.40
2022-09-02T05:30:15.122Z,1018.40
2022-09-02T05:31:15.905Z,1018.43
2022-09-02T05:32:16.565Z,1018.38
2022-09-02T05:33:17.278Z,1018.40
2022-09-02T05:34:17.918Z,1018.46
2022-09-02T05:35:18.562Z,1018.41
2022-09-02T05:36:19.162Z,1018.40
2022-09-02T05:37:19.761Z,1018.44
2022-09-02T05:38:20.360Z,1018.38
2022-09-02T05:39:20.961Z,1018.41
2022-09-02T05:40:22.708Z,1018.43
2022-09-02T05:41:23.158Z,1018.40
2022-09-02T05:42:23.756Z,1018.45
2022-09-02T05:43:24.356Z,1018.38
2022-09-02T05:44:24.943Z,1018.45
2022-09-02T05:45:25.537Z,1018.45
2022-09-02T05:46:26.189Z,1018.52
2022-09-02T05:47:26.787Z,1018.50
2022-09-02T05:48:27.392Z,1018.50
2022-09-02T05:49:27.991Z,1018.56
2022-09-02T05:50:28.591Z,1018.60
2022-09-02T05:51:30.172Z,1018.53
2022-09-02T05:52:30.766Z,1018.65
2022-09-02T05:53:31.358Z,1018.59
2022-09-02T05:54:31.952Z,1018.64
2022-09-02T05:55:32.643Z,1018.59
2022-09-02T05:56:33.234Z,1018.58
2022-09-02T05:57:33.829Z,1018.61
2022-09-02T05:58:34.428Z,1018.64
2022-09-02T05:59:35.016Z,1018.61
2022-09-02T06:00:35.606Z,1018.60
2022-09-02T06:01:36.259Z,1018.66
2022-09-02T06:02:36.859Z,1018.67
2022-09-02T06:03:37.426Z,1018.72
2022-09-02T06:04:38.033Z,1018.66
2022-09-02T06:05:38.621Z,1018.73
2022-09-02T06:06:39.227Z,1018.64
2022-09-02T06:07:39.828Z,1018.74
2022-09-02T06:08:40.414Z,1018.73
2022-09-02T06:09:41.009Z,1018.73
2022-09-02T06:10:41.701Z,1018.77
2022-09-02T06:11:42.295Z,1018.87
2022-09-02T06:12:42.926Z,1018.83
2022-09-02T06:13:43.487Z,1018.81
2022-09-02T06:14:44.077Z,1018.94
2022-09-02T06:15:44.700Z,1018.87
2022-09-02T06:16:45.277Z,1018.87
2022-09-02T06:17:45.876Z,1018.93
2022-09-02T06:18:46.475Z,1018.87
2022-09-02T06:19:47.076Z,1018.87
2022-09-02T06:20:47.672Z,1018.82
2022-09-02T06:21:48.252Z,1018.82
2022-09-02T06:22:48.857Z,1018.78
2022-09-02T06:23:49.508Z,1018.83
2022-09-02T06:24:50.111Z,1018.79
2022-09-02T06:25:50.711Z,1018.84
2022-09-02T06:26:51.310Z,1018.78
2022-09-02T06:27:52.903Z,1018.74
2022-09-02T06:28:53.500Z,1018.83
2022-09-02T06:29:54.101Z,1018.80
2022-09-02T06:30:54.718Z,1018.80
2022-09-02T06:31:55.307Z,1018.83
2022-09-02T06:32:55.955Z,1018.80
2022-09-02T06:33:56.553Z,1018.87
2022-09-02T06:34:57.304Z,1018.92
2022-09-02T06:35:57.891Z,1018.90
2022-09-02T06:36:58.482Z,1018.93
2022-09-02T06:37:59.225Z,1018.99
2022-09-02T06:38:59.826Z,1019.04
2022-09-02T06:40:00.414Z,1019.00
2022-09-02T06:41:01.153Z,1018.97
2022-09-02T06:42:01.744Z,1018.98
2022-09-02T06:43:02.335Z,1018.94
2022-09-02T06:44:02.929Z,1019.02
2022-09-02T06:45:03.521Z,1018.97
2022-09-02T06:46:04.183Z,1018.99
2022-09-02T06:47:04.761Z,1019.01
2022-09-02T06:48:07.634Z,1019.04
2022-09-02T06:49:07.009Z,1019.01
2022-09-02T06:50:07.594Z,1018.98
2022-09-02T06:51:08.183Z,1019.04
2022-09-02T06:52:08.778Z,1019.01
2022-09-02T06:53:09.384Z,1019.05
2022-09-02T06:54:09.982Z,1019.04
2022-09-02T06:55:10.587Z,1019.06
2022-09-02T06:56:11.180Z,1019.02
2022-09-02T06:57:12.820Z,1019.01
2022-09-02T06:58:13.419Z,1018.96
2022-09-02T06:59:14.016Z,1018.97
2022-09-02T07:00:14.615Z,1018.96
2022-09-02T07:01:15.347Z,1018.95
2022-09-02T07:03:16.623Z,1018.97
2022-09-02T07:04:17.286Z,1018.91
2022-09-02T07:05:17.871Z,1019.03
2022-09-02T07:06:18.466Z,1019.06
2022-09-02T07:07:19.054Z,1019.12
2022-09-02T07:08:19.650Z,1019.06
2022-09-02T07:09:20.240Z,1019.16
2022-09-02T07:10:20.833Z,1019.02
2022-09-02T07:11:21.425Z,1019.11
2022-09-02T07:12:22.019Z,1019.05
2022-09-02T07:13:22.674Z,1019.12
2022-09-02T07:14:23.265Z,1019.09
2022-09-02T07:15:23.869Z,1019.05
2022-09-02T07:16:26.916Z,1019.08
2022-09-02T07:17:26.096Z,1019.12
2022-09-02T07:18:26.689Z,1019.23
2022-09-02T07:19:27.282Z,1019.11
2022-09-02T07:20:27.877Z,1019.16
2022-09-02T07:21:28.483Z,1019.19
2022-09-02T07:22:29.082Z,1019.16
2022-09-02T07:23:29.684Z,1019.13
2022-09-02T07:24:30.279Z,1019.26
2022-09-02T07:25:30.880Z,1019.16
2022-09-02T07:26:31.481Z,1019.28
2022-09-02T07:27:32.085Z,1019.21
2022-09-02T07:28:32.742Z,1019.25
2022-09-02T07:29:33.330Z,1019.23
2022-09-02T07:30:33.964Z,1019.16
2022-09-02T07:31:34.552Z,1019.21
2022-09-02T07:32:35.138Z,1019.26
2022-09-02T07:33:35.742Z,1019.16
2022-09-02T07:34:36.341Z,1019.23
2022-09-02T07:35:36.939Z,1019.30
2022-09-02T07:36:37.544Z,1019.34
2022-09-02T07:37:38.124Z,1019.28
2022-09-02T07:38:38.769Z,1019.36
2022-09-02T07:39:39.412Z,1019.36
2022-09-02T07:40:40.072Z,1019.35
2022-09-02T07:41:41.639Z,1019.24
2022-09-02T07:42:42.231Z,1019.32
2022-09-02T07:43:42.825Z,1019.39
2022-09-02T07:44:43.421Z,1019.37
2022-09-02T07:45:44.050Z,1019.33
2022-09-02T07:46:44.628Z,1019.35
2022-09-02T07:47:46.214Z,1019.32
2022-09-02T07:48:47.158Z,1019.35
2022-09-02T07:50:49.360Z,1019.30
2022-09-02T07:51:49.961Z,1019.33
2022-09-02T07:52:50.699Z,1019.26
2022-09-02T07:53:51.304Z,1019.32
2022-09-02T07:54:52.051Z,1019.22
2022-09-02T07:55:52.655Z,1019.20
2022-09-02T07:56:53.320Z,1019.22
2022-09-02T07:57:53.919Z,1019.26
2022-09-02T07:58:55.513Z,1019.27
2022-09-02T07:59:56.109Z,1019.32
2022-09-02T08:00:56.751Z,1019.32
2022-09-02T08:01:57.347Z,1019.29
2022-09-02T08:02:58.093Z,1019.27
2022-09-02T08:04:01.450Z,1019.30
2022-09-02T08:05:00.447Z,1019.27
2022-09-02T08:06:01.046Z,1019.26
2022-09-02T08:07:01.634Z,1019.33
2022-09-02T08:08:02.224Z,1019.32
2022-09-02T08:09:02.817Z,1019.35
2022-09-02T08:10:03.422Z,1019.35
2022-09-02T08:11:04.025Z,1019.37
2022-09-02T08:12:04.621Z,1019.39
2022-09-02T08:13:05.266Z,1019.37
2022-09-02T08:14:05.999Z,1019.39
2022-09-02T08:15:06.584Z,1019.36
2022-09-02T08:16:07.245Z,1019.32
2022-09-02T08:17:07.900Z,1019.49
2022-09-02T08:18:08.595Z,1019.38
2022-09-02T08:19:10.093Z,1019.39
2022-09-02T08:20:12.591Z,1019.46
2022-09-02T08:21:12.284Z,1019.43
2022-09-02T08:22:12.932Z,1019.42
2022-09-02T08:23:25.609Z,1019.44
2022-09-02T08:24:15.121Z,1019.48
2022-09-02T08:25:15.719Z,1019.44
2022-09-02T08:26:16.305Z,1019.43
2022-09-02T08:27:16.900Z,1019.52
2022-09-02T08:28:17.577Z,1019.52
2022-09-02T08:29:18.195Z,1019.53
2022-09-02T08:30:18.797Z,1019.51
2022-09-02T08:31:19.432Z,1019.51
2022-09-02T08:32:20.029Z,1019.54
2022-09-02T08:33:20.700Z,1019.62
2022-09-02T08:34:21.373Z,1019.64
2022-09-02T08:35:21.965Z,1019.58
2022-09-02T08:36:22.557Z,1019.61
2022-09-02T08:37:23.149Z,1019.55
2022-09-02T08:38:23.900Z,1019.49
2022-09-02T08:39:24.700Z,1019.59
2022-09-02T08:40:25.335Z,1019.57
2022-09-02T08:41:25.957Z,1019.59
2022-09-02T08:42:26.590Z,1019.59
2022-09-02T08:43:27.231Z,1019.56
2022-09-02T08:44:27.838Z,1019.59
2022-09-02T08:45:28.617Z,1019.58
2022-09-02T08:46:29.211Z,1019.61
2022-09-02T08:47:29.877Z,1019.54
2022-09-02T08:48:30.475Z,1019.59
2022-09-02T08:49:31.074Z,1019.63
2022-09-02T08:50:31.672Z,1019.65
2022-09-02T08:51:37.364Z,1019.63
2022-09-02T08:52:33.863Z,1019.62
2022-09-02T08:53:34.512Z,1019.65
2022-09-02T08:54:35.114Z,1019.61
2022-09-02T08:55:35.712Z,1019.66
2022-09-02T08:56:36.378Z,1019.73
2022-09-02T08:57:36.969Z,1019.77
2022-09-02T08:58:38.562Z,1019.76
2022-09-02T09:00:39.789Z,1019.71
2022-09-02T09:01:40.371Z,1019.76
2022-09-02T09:02:45.961Z,1019.72
2022-09-02T09:03:41.607Z,1019.75
2022-09-02T09:04:42.200Z,1019.76
2022-09-02T09:05:42.796Z,1019.73
2022-09-02T09:06:43.388Z,1019.71
2022-09-02T09:07:43.980Z,1019.73
2022-09-02T09:08:44.573Z,1019.71
2022-09-02T09:09:45.169Z,1019.70
2022-09-02T09:10:45.759Z,1019.79
2022-09-02T09:11:46.353Z,1019.80
2022-09-02T09:12:46.946Z,1019.71
2022-09-02T09:13:47.538Z,1019.79
2022-09-02T09:14:48.148Z,1019.76
2022-09-02T09:15:48.744Z,1019.81
2022-09-02T09:16:49.369Z,1019.80
2022-09-02T09:17:49.950Z,1019.80
2022-09-02T09:18:50.613Z,1019.81
2022-09-02T09:19:51.258Z,1019.80
2022-09-02T09:20:51.858Z,1019.82
2022-09-02T09:21:52.457Z,1019.84
2022-09-02T09:22:53.108Z,1019.80
2022-09-02T09:23:53.694Z,1019.82
2022-09-02T09:24:54.288Z,1019.86
2022-09-02T09:25:54.880Z,1019.84
2022-09-02T09:26:55.488Z,1019.80
2022-09-02T09:27:56.086Z,1019.82
2022-09-02T09:28:56.688Z,1019.84
2022-09-02T09:29:57.290Z,1019.77
2022-09-02T09:30:57.877Z,1019.79
2022-09-02T09:31:58.543Z,1019.79
2022-09-02T09:32:59.113Z,1019.76
2022-09-02T09:33:59.707Z,1019.72
2022-09-02T09:35:00.355Z,1019.76
2022-09-02T09:36:01.179Z,1019.67
2022-09-02T09:37:01.771Z,1019.70
2022-09-02T09:38:02.362Z,1019.72
2022-09-02T09:39:02.991Z,1019.74
2022-09-02T09:40:03.629Z,1019.66
2022-09-02T09:41:04.277Z,1019.70
2022-09-02T09:42:04.863Z,1019.75
2022-09-02T09:43:05.697Z,1019.77
2022-09-02T09:44:07.041Z,1019.77
2022-09-02T09:45:07.644Z,1019.81
2022-09-02T09:46:08.367Z,1019.86
2022-09-02T09:47:08.957Z,1019.84
2022-09-02T09:48:09.555Z,1019.77
2022-09-02T09:49:10.716Z,1019.80
2022-09-02T09:50:11.746Z,1019.79
2022-09-02T09:51:12.346Z,1019.80
2022-09-02T09:52:12.943Z,1019.84
2022-09-02T09:53:13.595Z,1019.79
2022-09-02T09:54:14.194Z,1019.86
2022-09-02T09:55:14.843Z,1019.82
2022-09-02T09:56:16.437Z,1019.83
2022-09-02T09:57:17.035Z,1019.79
2022-09-02T09:58:18.626Z,1019.84
2022-09-02T09:59:19.209Z,1019.87
2022-09-02T10:00:19.852Z,1019.85
2022-09-02T10:01:20.535Z,1019.85
2022-09-02T10:02:21.235Z,1019.94
2022-09-02T10:03:21.852Z,1019.90
2022-09-02T10:04:41.926Z,1019.88
2022-09-02T10:05:24.090Z,1019.93
2022-09-02T10:06:24.732Z,1019.81
2022-09-02T10:07:25.326Z,1019.94
2022-09-02T10:08:26.914Z,1019.91
2022-09-02T10:09:27.505Z,1019.86
2022-09-02T10:10:28.100Z,1019.86
2022-09-02T10:11:28.691Z,1019.88
2022-09-02T10:12:29.284Z,1019.90
2022-09-02T10:13:29.883Z,1019.91
2022-09-02T10:14:30.469Z,1019.91
2022-09-02T10:15:31.075Z,1019.81
2022-09-02T10:16:31.706Z,1019.86
2022-09-02T10:17:32.304Z,1019.89
2022-09-02T10:18:33.897Z,1019.84
2022-09-02T10:19:34.485Z,1019.86
2022-09-02T10:20:35.078Z,1019.83
2022-09-02T10:21:35.674Z,1019.83
2022-09-02T10:22:37.880Z,1019.86
2022-09-02T10:23:38.700Z,1019.85
2022-09-02T10:24:39.296Z,1019.89
2022-09-02T10:25:39.889Z,1019.84
2022-09-02T10:26:40.482Z,1019.86
2022-09-02T10:27:41.075Z,1019.85
2022-09-02T10:28:41.669Z,1019.91
2022-09-02T10:29:42.263Z,1019.76
2022-09-02T10:30:42.857Z,1019.79
2022-09-02T10:31:43.473Z,1019.85
2022-09-02T10:32:44.113Z,1019.85
2022-09-02T10:33:44.714Z,1019.90
2022-09-02T10:34:45.302Z,1019.85
2022-09-02T10:35:45.909Z,1019.82
2022-09-02T10:36:46.507Z,1019.82
2022-09-02T10:37:47.109Z,1019.68
2022-09-02T10:38:47.706Z,1019.80
2022-09-02T10:39:48.306Z,1019.78
2022-09-02T10:40:48.937Z,1019.75
2022-09-02T10:41:49.544Z,1019.73
2022-09-02T10:42:50.207Z,1019.82
2022-09-02T10:43:57.551Z,1019.73
2022-09-02T10:44:55.644Z,1019.78
2022-09-02T10:45:54.246Z,1019.75
2022-09-02T10:46:54.931Z,1019.79
2022-09-02T10:47:55.547Z,1019.73
2022-09-02T10:48:56.128Z,1019.66
2022-09-02T10:49:56.722Z,1019.77
2022-09-02T10:50:57.316Z,1019.74
2022-09-02T10:51:57.910Z,1019.84
2022-09-02T10:52:58.506Z,1019.77
2022-09-02T10:53:59.095Z,1019.75
2022-09-02T10:54:59.690Z,1019.68
2022-09-02T10:56:00.282Z,1019.73
2022-09-02T10:57:00.873Z,1019.68
2022-09-02T10:58:01.471Z,1019.70
2022-09-02T10:59:02.079Z,1019.70
2022-09-02T11:00:02.667Z,1019.70
2022-09-02T11:01:03.292Z,1019.70
2022-09-02T11:02:04.048Z,1019.63
2022-09-02T11:03:04.704Z,1019.62
2022-09-02T11:04:05.379Z,1019.70
2022-09-02T11:05:05.962Z,1019.60
2022-09-02T11:06:06.555Z,1019.62
2022-09-02T11:07:07.150Z,1019.65
2022-09-02T11:08:07.756Z,1019.68
2022-09-02T11:09:08.354Z,1019.64
2022-09-02T11:10:08.955Z,1019.62
2022-09-02T11:11:09.552Z,1019.62
2022-09-02T11:12:10.156Z,1019.57
2022-09-02T11:13:10.754Z,1019.55
2022-09-02T11:14:11.356Z,1019.57
2022-09-02T11:15:12.998Z,1019.58
2022-09-02T11:16:13.638Z,1019.52
2022-09-02T11:17:14.244Z,1019.57
2022-09-02T11:18:15.488Z,1019.57
2022-09-02T11:19:16.392Z,1019.50
2022-09-02T11:20:17.000Z,1019.48
2022-09-02T11:21:17.651Z,1019.43
2022-09-02T11:22:18.278Z,1019.44
2022-09-02T11:23:19.793Z,1019.45
2022-09-02T11:24:20.902Z,1019.48
2022-09-02T11:25:21.552Z,1019.41
2022-09-02T11:26:22.152Z,1019.42
2022-09-02T11:27:39.034Z,1019.45
2022-09-02T11:28:24.327Z,1019.40
2022-09-02T11:29:25.527Z,1019.38
2022-09-02T11:30:26.174Z,1019.33
2022-09-02T11:31:26.817Z,1019.33
2022-09-02T11:32:28.404Z,1019.29
2022-09-02T11:33:29.156Z,1019.35
2022-09-02T11:34:29.799Z,1019.28
2022-09-02T11:35:30.394Z,1019.31
2022-09-02T11:36:33.380Z,1019.32
2022-09-02T11:37:32.575Z,1019.30
2022-09-02T11:38:33.320Z,1019.27
2022-09-02T11:39:51.567Z,1019.29
2022-09-02T11:40:36.334Z,1019.35
2022-09-02T11:41:37.370Z,1019.31
2022-09-02T11:42:37.740Z,1019.31
2022-09-02T11:43:38.336Z,1019.35
2022-09-02T11:44:38.943Z,1019.38
2022-09-02T11:45:39.619Z,1019.26
2022-09-02T11:46:40.282Z,1019.30
2022-09-02T11:47:45.454Z,1019.29
2022-09-02T11:48:42.521Z,1019.31
2022-09-02T11:49:43.354Z,1019.24
2022-09-02T11:50:43.954Z,1019.36
2022-09-02T11:51:44.553Z,1019.26
2022-09-02T11:52:45.470Z,1019.30
2022-09-02T11:53:46.223Z,1019.26
2022-09-02T11:54:46.881Z,1019.33
2022-09-02T11:55:48.480Z,1019.31
2022-09-02T11:56:49.060Z,1019.38
2022-09-02T11:57:49.655Z,1019.36
2022-09-02T11:58:50.728Z,1019.21
2022-09-02T11:59:51.320Z,1019.30
2022-09-02T12:00:51.927Z,1019.39
2022-09-02T12:01:52.513Z,1019.36
2022-09-02T12:02:53.120Z,1019.33
2022-09-02T12:04:39.795Z,1019.29
2022-09-02T12:05:00.202Z,1019.30
2022-09-02T12:05:57.254Z,1019.31
2022-09-02T12:06:57.988Z,1019.32
2022-09-02T12:07:59.139Z,1019.23
2022-09-02T12:08:59.729Z,1019.28
2022-09-02T12:10:00.323Z,1019.13
2022-09-02T12:11:01.379Z,1019.18
2022-09-02T12:12:01.972Z,1019.24
2022-09-02T12:13:02.591Z,1019.26
2022-09-02T12:14:04.664Z,1019.22
2022-09-02T12:15:04.825Z,1019.12
2022-09-02T12:16:06.077Z,1019.22
2022-09-02T12:17:06.672Z,1019.17